Almeirim, Brazil
Current Conditions -  °F | °C
As of 9:00 AM on Saturday 25 Oct 2014 (Local Time) from SBHT Reporting Station
Broken Clouds Broken Clouds  
Wind Chill: 81°   Ceiling: 1500
Heat Index: 87°   Visibility: 6mi
Dew Point: 77°   Wind: 7mph
Humidity: 89%   Direction: 60°ENE
Pressure: 29.88"   Gusts: NA
Location:  1.53°S, 52.58°W
Report Text: SBHT 251200Z 06006KT 9999 SCT012 BKN015 27/25 Q1012
Loading
Personal Weather Stations






























Interactive Weather Map
Tropical Storm Tracking
New forecast layout! Learn more

10-Day Weather Forecast

Advertisements
Track Severe Weather on mobile